Time;durP1;ratioP1;P1;durP2;ratioP2;P2;SDS_P1;SDS_P2;PMS_P1;PMS_P2;Temp;Humidity;BMP_temperature;BMP_pressure;BME280_temperature;BME280_humidity;BME280_pressure;Samples;Min_cycle;Max_cycle;Signal;HPM_P1;HPM_P2
2022/12/21 00:00:08;;;;;;;113.37;33.00;;;10.10;99.90;;;;;;5111270;28;20199;-69
2022/12/21 00:02:35;;;;;;;137.23;33.00;;;10.10;99.90;;;;;;5107726;28;20219;-70
2022/12/21 00:05:02;;;;;;;122.23;34.43;;;10.10;99.90;;;;;;5111986;28;20719;-69
2022/12/21 00:07:28;;;;;;;125.17;34.50;;;10.10;99.90;;;;;;5111230;28;20651;-69
2022/12/21 00:09:55;;;;;;;121.83;33.57;;;10.10;99.90;;;;;;5111488;28;20609;-69
2022/12/21 00:12:23;;;;;;;115.40;33.90;;;10.10;99.90;;;;;;5092187;28;20694;-70
2022/12/21 00:14:50;;;;;;;116.03;33.80;;;10.10;99.90;;;;;;5111375;28;20210;-70
2022/12/21 00:17:17;;;;;;;119.87;33.60;;;10.10;99.90;;;;;;5109150;28;20211;-68
2022/12/21 00:19:44;;;;;;;134.83;33.67;;;10.10;99.90;;;;;;5111290;28;20233;-69
2022/12/21 00:22:11;;;;;;;131.30;35.30;;;10.00;99.90;;;;;;5085436;28;20211;-69
2022/12/21 00:24:38;;;;;;;120.20;34.77;;;10.00;99.90;;;;;;5111225;28;20869;-70
2022/12/21 00:27:04;;;;;;;121.43;33.10;;;10.00;99.90;;;;;;5111793;28;20207;-69
2022/12/21 00:29:31;;;;;;;123.67;32.87;;;10.00;99.90;;;;;;5110492;28;20210;-69
2022/12/21 00:31:58;;;;;;;111.33;32.57;;;9.90;99.90;;;;;;5106463;28;20675;-68
2022/12/21 00:34:25;;;;;;;112.97;33.60;;;9.90;99.90;;;;;;5092561;28;20203;-72
2022/12/21 00:36:51;;;;;;;125.97;33.20;;;9.90;99.90;;;;;;5093000;28;20217;-70
2022/12/21 00:39:18;;;;;;;116.87;34.27;;;9.80;99.90;;;;;;5111012;28;20207;-69
2022/12/21 00:41:45;;;;;;;116.70;34.27;;;9.80;99.90;;;;;;5110567;28;20207;-69
2022/12/21 00:44:12;;;;;;;111.60;32.43;;;9.90;99.90;;;;;;5109257;28;20206;-69
2022/12/21 00:46:38;;;;;;;130.27;36.23;;;9.80;99.90;;;;;;5110892;28;20222;-69
2022/12/21 00:49:06;;;;;;;131.73;33.33;;;9.80;99.90;;;;;;5089146;28;20232;-69
2022/12/21 00:51:35;;;;;;;117.67;33.93;;;9.80;99.90;;;;;;5087754;28;20224;-69
2022/12/21 00:54:02;;;;;;;121.80;34.50;;;9.80;99.90;;;;;;5088776;28;20660;-69
2022/12/21 00:56:29;;;;;;;119.67;33.37;;;9.70;99.90;;;;;;5090171;28;20341;-70
2022/12/21 00:58:56;;;;;;;134.53;36.73;;;9.70;99.90;;;;;;5090427;28;20265;-69
2022/12/21 01:01:30;;;;;;;129.07;35.83;;;9.70;99.90;;;;;;5087931;28;20221;-69
2022/12/21 01:03:57;;;;;;;132.50;34.73;;;9.70;99.90;;;;;;5086879;28;20765;-70
2022/12/21 01:06:30;;;;;;;129.13;35.00;;;9.60;99.90;;;;;;5089971;28;20207;-69
2022/12/21 01:08:57;;;;;;;131.80;35.90;;;9.80;99.90;;;;;;5084505;28;20211;-69
2022/12/21 01:11:25;;;;;;;124.50;33.27;;;9.70;99.90;;;;;;5088991;28;20242;-70
2022/12/21 01:13:54;;;;;;;123.53;34.77;;;9.70;99.90;;;;;;5089827;28;20737;-70
2022/12/21 01:16:27;;;;;;;119.37;33.60;;;9.70;99.90;;;;;;5090157;28;20635;-69
2022/12/21 01:18:54;;;;;;;122.87;34.33;;;9.70;99.90;;;;;;5090073;28;20196;-69
2022/12/21 01:21:24;;;;;;;123.57;34.33;;;9.70;99.90;;;;;;5109629;28;20229;-69
2022/12/21 01:23:53;;;;;;;115.00;33.50;;;9.60;99.90;;;;;;5110062;28;20202;-69
2022/12/21 01:26:20;;;;;;;114.23;32.57;;;9.60;99.90;;;;;;5110137;28;20210;-69
2022/12/21 01:28:46;;;;;;;116.10;30.80;;;9.60;99.90;;;;;;5109777;28;20230;-69
2022/12/21 01:31:14;;;;;;;122.17;32.33;;;9.60;99.90;;;;;;5109075;28;20234;-69
2022/12/21 01:33:41;;;;;;;114.87;33.10;;;9.60;99.90;;;;;;5110102;28;20203;-69
2022/12/21 01:36:10;;;;;;;109.97;32.10;;;9.60;99.90;;;;;;5110233;28;20199;-69
2022/12/21 01:38:40;;;;;;;119.13;33.00;;;9.60;99.90;;;;;;5110171;28;20207;-69
2022/12/21 01:41:12;;;;;;;118.00;32.10;;;9.50;99.90;;;;;;5091751;28;20225;-69
2022/12/21 01:43:49;;;;;;;110.10;32.87;;;9.50;99.90;;;;;;5109505;28;20210;-69
2022/12/21 01:46:34;;;;;;;116.57;31.70;;;9.50;99.90;;;;;;5108102;28;20219;-69
2022/12/21 01:49:03;;;;;;;127.87;34.33;;;9.50;99.90;;;;;;5082665;28;20239;-69
2022/12/21 01:51:35;;;;;;;116.07;32.50;;;9.50;99.90;;;;;;5088226;28;20234;-70
2022/12/21 01:54:18;;;;;;;110.63;33.00;;;9.50;99.90;;;;;;5068685;28;20207;-69
2022/12/21 01:56:48;;;;;;;116.90;32.77;;;9.40;99.90;;;;;;5089681;28;20207;-69
2022/12/21 01:59:39;;;;;;;120.87;32.67;;;9.40;99.90;;;;;;5089967;28;20211;-69
2022/12/21 02:02:15;;;;;;;128.20;33.10;;;9.40;99.90;;;;;;5085428;28;20229;-69
2022/12/21 02:04:42;;;;;;;126.03;33.20;;;9.40;99.90;;;;;;5088769;28;20195;-70
2022/12/21 02:07:09;;;;;;;125.43;33.70;;;9.40;99.90;;;;;;5089669;28;20671;-69
2022/12/21 02:09:36;;;;;;;126.10;33.97;;;9.40;99.90;;;;;;5089537;28;20210;-69
2022/12/21 02:12:06;;;;;;;128.40;34.33;;;9.30;99.90;;;;;;5084496;28;20730;-69
2022/12/21 02:14:37;;;;;;;137.90;35.63;;;9.30;99.90;;;;;;5088350;28;20223;-69
2022/12/21 02:17:14;;;;;;;130.37;33.20;;;9.30;99.90;;;;;;5088214;28;20612;-70
2022/12/21 02:19:59;;;;;;;125.47;34.23;;;9.30;99.90;;;;;;5093094;28;20599;-69
2022/12/21 02:22:47;;;;;;;137.50;34.00;;;9.30;99.90;;;;;;5092659;28;20204;-70
2022/12/21 02:25:32;;;;;;;128.87;33.67;;;9.30;99.90;;;;;;5092766;28;20195;-70
2022/12/21 02:28:19;;;;;;;144.77;36.17;;;9.30;99.90;;;;;;5089541;28;20679;-69
2022/12/21 02:30:51;;;;;;;136.83;34.50;;;9.30;99.90;;;;;;5089647;28;20192;-69
2022/12/21 02:33:29;;;;;;;132.60;34.83;;;9.30;99.90;;;;;;5089686;28;20208;-68
2022/12/21 02:36:16;;;;;;;127.20;33.00;;;9.20;99.90;;;;;;5093204;28;20231;-68
2022/12/21 02:38:50;;;;;;;124.80;34.30;;;9.30;99.90;;;;;;5090523;28;20323;-69
2022/12/21 02:41:45;;;;;;;145.90;34.77;;;9.30;99.90;;;;;;5087645;28;20207;-69
2022/12/21 02:44:37;;;;;;;141.43;34.77;;;9.30;99.90;;;;;;5091651;28;20207;-68
2022/12/21 02:47:28;;;;;;;152.63;38.23;;;9.20;99.90;;;;;;5071950;28;20265;-69
2022/12/21 02:50:14;;;;;;;140.77;35.90;;;9.30;99.90;;;;;;5090385;28;20419;-69
2022/12/21 02:52:53;;;;;;;127.37;33.97;;;9.20;99.90;;;;;;5089391;28;20219;-69
2022/12/21 02:55:20;;;;;;;140.47;35.73;;;9.20;99.90;;;;;;5090718;28;20271;-69
2022/12/21 02:57:47;;;;;;;140.77;34.97;;;9.30;99.90;;;;;;5090856;28;20200;-69
2022/12/21 03:00:17;;;;;;;148.00;35.33;;;9.30;99.90;;;;;;5089516;28;20200;-69
2022/12/21 03:03:47;;;;;;;143.37;40.07;;;9.30;99.90;;;;;;5091199;28;20764;-69
2022/12/21 03:06:04;;;;;;;137.57;36.80;;;9.30;99.90;;;;;;5090824;28;20200;-69
2022/12/21 03:08:38;;;;;;;139.63;35.90;;;9.20;99.90;;;;;;5089947;28;20652;-69
2022/12/21 03:11:06;;;;;;;161.27;37.47;;;9.20;99.90;;;;;;5070942;28;20242;-69
2022/12/21 03:13:55;;;;;;;152.00;38.10;;;9.20;99.90;;;;;;5090923;28;20211;-69
2022/12/21 03:16:50;;;;;;;140.63;36.40;;;9.20;99.90;;;;;;5090550;28;20568;-69
2022/12/21 03:19:37;;;;;;;147.10;38.83;;;9.20;99.90;;;;;;5091183;28;20214;-69
2022/12/21 03:22:06;;;;;;;152.03;37.83;;;9.20;99.90;;;;;;5089226;28;20203;-70
2022/12/21 03:24:48;;;;;;;162.77;38.07;;;9.20;99.90;;;;;;5091151;28;20199;-70
2022/12/21 03:27:20;;;;;;;155.67;41.07;;;9.20;99.90;;;;;;5090897;28;20207;-70
2022/12/21 03:30:00;;;;;;;152.53;38.23;;;9.30;99.90;;;;;;5088562;28;20199;-70
2022/12/21 03:32:53;;;;;;;137.70;36.67;;;9.30;99.90;;;;;;5090782;28;20718;-70
2022/12/21 03:35:33;;;;;;;142.83;37.20;;;9.20;99.90;;;;;;5090600;28;20610;-70
2022/12/21 03:38:03;;;;;;;136.73;38.70;;;9.20;99.90;;;;;;5088214;28;20234;-70
2022/12/21 03:40:34;;;;;;;152.00;37.30;;;9.20;99.90;;;;;;5090352;28;20214;-70
2022/12/21 03:43:10;;;;;;;154.37;38.30;;;9.20;99.90;;;;;;5091305;28;20223;-70
2022/12/21 03:45:45;;;;;;;134.20;37.23;;;9.20;99.90;;;;;;5091310;28;20206;-69
2022/12/21 03:48:18;;;;;;;148.23;39.33;;;9.20;99.90;;;;;;5073015;28;20214;-70
2022/12/21 03:50:48;;;;;;;142.47;38.50;;;9.20;99.90;;;;;;5091813;28;20210;-69
2022/12/21 03:53:39;;;;;;;129.07;36.87;;;9.20;99.90;;;;;;5091320;28;20226;-70
2022/12/21 03:56:08;;;;;;;146.40;36.70;;;9.20;99.90;;;;;;5091461;28;20273;-69
2022/12/21 03:58:35;;;;;;;166.33;39.03;;;9.20;99.90;;;;;;5085883;28;20632;-70
2022/12/21 04:01:21;;;;;;;137.60;37.07;;;9.20;99.90;;;;;;5087899;28;21002;-69
2022/12/21 04:03:54;;;;;;;134.23;35.70;;;9.20;99.90;;;;;;5091602;28;20218;-69
2022/12/21 04:06:25;;;;;;;134.63;35.27;;;9.20;99.90;;;;;;5091618;28;20208;-70
2022/12/21 04:08:53;;;;;;;128.57;34.63;;;9.20;99.90;;;;;;5087562;28;20204;-68
2022/12/21 04:14:04;;;;;;;136.67;35.60;;;9.20;99.90;;;;;;5091056;28;20218;-69
2022/12/21 04:16:31;;;;;;;134.70;33.97;;;9.20;99.90;;;;;;5091101;28;20569;-68
2022/12/21 04:21:43;;;;;;;123.23;34.43;;;9.20;99.90;;;;;;5089089;28;20357;-69
2022/12/21 04:29:57;;;;;;;117.90;33.53;;;9.10;99.90;;;;;;5028009;28;20694;-69
2022/12/21 04:32:24;;;;;;;123.73;33.47;;;9.10;99.90;;;;;;5075642;28;20680;-69
2022/12/21 04:34:51;;;;;;;136.63;36.13;;;9.10;99.90;;;;;;5090828;28;20648;-69
2022/12/21 04:37:33;;;;;;;136.40;35.57;;;9.10;99.90;;;;;;5090644;28;20203;-69
2022/12/21 04:40:01;;;;;;;141.37;36.17;;;9.10;99.90;;;;;;5090707;28;20237;-69
2022/12/21 04:42:28;;;;;;;143.17;36.67;;;9.10;99.90;;;;;;5089829;28;20558;-69
2022/12/21 04:44:55;;;;;;;134.77;34.67;;;9.10;99.90;;;;;;5089611;28;20649;-69
2022/12/21 04:47:21;;;;;;;136.53;35.80;;;9.00;99.90;;;;;;5090064;28;20584;-69
2022/12/21 04:49:48;;;;;;;144.20;36.23;;;9.10;99.90;;;;;;5101559;28;20233;-70
2022/12/21 04:52:15;;;;;;;129.73;34.67;;;9.10;99.90;;;;;;5086446;28;20543;-69
2022/12/21 04:54:42;;;;;;;140.60;35.63;;;9.10;99.90;;;;;;5110944;28;20203;-69
2022/12/21 04:57:09;;;;;;;134.80;36.03;;;9.00;99.90;;;;;;5107564;28;20199;-69
2022/12/21 04:59:35;;;;;;;149.10;38.07;;;9.00;99.90;;;;;;5105241;28;20187;-69
2022/12/21 05:02:02;;;;;;;147.77;35.43;;;9.00;99.90;;;;;;5108358;28;20219;-69
2022/12/21 05:04:29;;;;;;;139.90;36.57;;;9.10;99.90;;;;;;5088154;28;20248;-69
2022/12/21 05:06:56;;;;;;;149.87;35.33;;;9.00;99.90;;;;;;5092439;28;20643;-69
2022/12/21 05:09:25;;;;;;;152.37;36.37;;;9.00;99.90;;;;;;5106005;28;20195;-69
2022/12/21 05:11:54;;;;;;;142.47;35.43;;;9.00;99.90;;;;;;5106871;28;20211;-70
2022/12/21 05:14:21;;;;;;;132.60;35.73;;;9.10;99.90;;;;;;5110189;28;20203;-69
2022/12/21 05:16:48;;;;;;;143.90;35.53;;;9.10;99.90;;;;;;5108324;28;20298;-69
2022/12/21 05:19:15;;;;;;;139.90;35.80;;;9.10;99.90;;;;;;5105465;28;20632;-69
2022/12/21 05:21:42;;;;;;;131.57;36.93;;;9.00;99.90;;;;;;5093725;28;20201;-69
2022/12/21 05:24:09;;;;;;;146.60;36.27;;;9.00;99.90;;;;;;5110564;28;20198;-70
2022/12/21 05:26:36;;;;;;;147.83;37.17;;;8.90;99.90;;;;;;5110263;28;20294;-69
2022/12/21 05:29:03;;;;;;;155.67;37.20;;;8.90;99.90;;;;;;5110297;28;20202;-69
2022/12/21 05:31:30;;;;;;;148.50;39.30;;;8.90;99.90;;;;;;5107446;28;20229;-69
2022/12/21 05:33:57;;;;;;;144.90;38.17;;;8.80;99.90;;;;;;5106664;28;20279;-70
2022/12/21 05:36:24;;;;;;;134.87;37.40;;;8.80;99.90;;;;;;5110429;28;20201;-69
2022/12/21 05:38:51;;;;;;;143.47;35.47;;;8.80;99.90;;;;;;5106599;28;20227;-70
2022/12/21 05:41:18;;;;;;;129.90;36.77;;;8.80;99.90;;;;;;5110255;28;20671;-69
2022/12/21 05:43:44;;;;;;;151.90;38.23;;;8.90;99.90;;;;;;5087177;28;20211;-69
2022/12/21 05:46:12;;;;;;;140.43;35.87;;;8.90;99.90;;;;;;5110002;28;20226;-69
2022/12/21 05:48:44;;;;;;;136.90;35.83;;;8.80;99.90;;;;;;5106556;28;20590;-69
2022/12/21 05:51:12;;;;;;;142.10;35.00;;;8.80;99.90;;;;;;5113006;28;20334;-69
2022/12/21 05:53:42;;;;;;;140.93;36.30;;;8.80;99.90;;;;;;5109104;28;20218;-69
2022/12/21 05:56:08;;;;;;;147.07;33.97;;;8.80;99.90;;;;;;5091672;28;20278;-70
2022/12/21 05:58:35;;;;;;;148.50;33.67;;;8.80;99.90;;;;;;5113011;28;20202;-70
2022/12/21 06:01:04;;;;;;;150.13;35.57;;;8.80;99.90;;;;;;5112088;28;20219;-69
2022/12/21 06:03:31;;;;;;;140.13;34.60;;;8.70;99.90;;;;;;5112370;28;20248;-70
2022/12/21 06:06:03;;;;;;;141.03;35.37;;;8.70;99.90;;;;;;5114301;28;20245;-69
2022/12/21 06:08:31;;;;;;;142.60;35.77;;;8.70;99.90;;;;;;5114582;28;20205;-69
2022/12/21 06:11:16;;;;;;;134.23;33.57;;;8.60;99.90;;;;;;5113960;28;20208;-69
2022/12/21 06:13:43;;;;;;;151.27;33.67;;;8.60;99.90;;;;;;5110907;28;20230;-69
2022/12/21 06:16:13;;;;;;;153.13;36.53;;;8.60;99.90;;;;;;5110287;28;20222;-69
2022/12/21 06:18:40;;;;;;;155.80;36.87;;;8.50;99.90;;;;;;5112895;28;20192;-69
2022/12/21 06:21:09;;;;;;;143.23;37.20;;;8.50;99.90;;;;;;5109717;28;20843;-70
2022/12/21 06:23:37;;;;;;;152.10;37.43;;;8.50;99.90;;;;;;5113150;28;20210;-69
2022/12/21 06:26:05;;;;;;;155.50;36.33;;;8.50;99.90;;;;;;5112621;28;20245;-69
2022/12/21 06:28:33;;;;;;;159.00;36.77;;;8.50;99.90;;;;;;5108631;28;20231;-69
2022/12/21 06:31:06;;;;;;;150.47;36.23;;;8.50;99.90;;;;;;5095260;28;20301;-69
2022/12/21 06:33:33;;;;;;;140.50;35.07;;;8.50;99.90;;;;;;5110621;28;20728;-69
2022/12/21 06:36:00;;;;;;;162.47;37.27;;;8.50;99.90;;;;;;5113486;28;20249;-69
2022/12/21 06:38:27;;;;;;;172.70;39.63;;;8.50;99.90;;;;;;5113270;28;20269;-69
2022/12/21 06:41:05;;;;;;;153.00;35.83;;;8.50;99.90;;;;;;5107603;28;20202;-69
2022/12/21 06:43:34;;;;;;;145.30;36.23;;;8.50;99.90;;;;;;5106800;28;20205;-69
2022/12/21 06:46:09;;;;;;;149.93;36.80;;;8.50;99.90;;;;;;5110004;28;20299;-69
2022/12/21 06:48:37;;;;;;;146.83;36.27;;;8.50;99.90;;;;;;5113042;28;20206;-69
2022/12/21 06:51:07;;;;;;;154.57;37.07;;;8.50;99.90;;;;;;5112253;28;20262;-69
2022/12/21 06:53:36;;;;;;;155.57;36.33;;;8.40;99.90;;;;;;5093186;28;20233;-69
2022/12/21 06:56:05;;;;;;;147.37;38.03;;;8.40;99.90;;;;;;5112275;28;20634;-69
2022/12/21 06:58:34;;;;;;;153.17;36.57;;;8.40;99.90;;;;;;5112125;28;20576;-69
2022/12/21 07:01:05;;;;;;;163.83;36.53;;;8.40;99.90;;;;;;5110229;28;20269;-69
2022/12/21 07:03:32;;;;;;;150.93;35.20;;;8.40;99.90;;;;;;5101791;28;20227;-69
2022/12/21 07:06:09;;;;;;;152.87;35.27;;;8.40;99.90;;;;;;5111423;28;20198;-69
2022/12/21 07:08:36;;;;;;;157.02;39.83;;;8.30;99.90;;;;;;5109061;28;20951;-68
2022/12/21 07:11:05;;;;;;;152.40;37.83;;;8.40;99.90;;;;;;5112121;28;20729;-68
2022/12/21 07:13:35;;;;;;;185.33;38.07;;;8.40;99.90;;;;;;5093292;28;20250;-69
2022/12/21 07:16:02;;;;;;;151.50;37.73;;;8.40;99.90;;;;;;5110721;28;20613;-69
2022/12/21 07:18:29;;;;;;;148.43;34.93;;;8.40;99.90;;;;;;5112844;28;20206;-69
2022/12/21 07:20:57;;;;;;;151.50;37.93;;;8.30;99.90;;;;;;5112733;28;20301;-69
2022/12/21 07:23:28;;;;;;;158.87;36.10;;;8.30;99.90;;;;;;5111968;28;20289;-69
2022/12/21 07:25:56;;;;;;;148.63;36.20;;;8.30;99.90;;;;;;5113003;28;20243;-69
2022/12/21 07:28:25;;;;;;;153.93;37.33;;;8.30;99.90;;;;;;5094896;28;20210;-69
2022/12/21 07:31:02;;;;;;;156.73;39.07;;;8.30;99.90;;;;;;5112556;28;20292;-69
2022/12/21 07:33:29;;;;;;;161.37;38.10;;;8.30;99.90;;;;;;5111848;28;20234;-69
2022/12/21 07:36:00;;;;;;;179.73;40.47;;;8.30;99.90;;;;;;5108548;28;20206;-69
2022/12/21 07:38:32;;;;;;;188.13;41.70;;;8.40;99.90;;;;;;5112382;28;20600;-69
2022/12/21 07:41:00;;;;;;;183.10;41.60;;;8.40;99.90;;;;;;5112437;28;20237;-70
2022/12/21 07:43:28;;;;;;;182.13;41.50;;;8.40;99.90;;;;;;5109456;28;20221;-70
2022/12/21 07:45:55;;;;;;;192.33;42.37;;;8.40;99.90;;;;;;5110554;28;20234;-69
2022/12/21 07:48:22;;;;;;;182.20;41.70;;;8.40;99.90;;;;;;5111780;28;20642;-70
2022/12/21 07:50:56;;;;;;;182.17;42.20;;;8.50;99.90;;;;;;5111891;28;20194;-69
2022/12/21 07:53:23;;;;;;;197.10;42.47;;;8.50;99.90;;;;;;5093537;28;20221;-70
2022/12/21 07:55:49;;;;;;;188.33;43.43;;;8.60;99.90;;;;;;5111449;28;20739;-70
2022/12/21 07:58:16;;;;;;;212.33;44.07;;;8.60;99.90;;;;;;5111526;28;20293;-69
2022/12/21 08:00:43;;;;;;;241.60;47.50;;;8.60;99.90;;;;;;5112206;28;20252;-70
2022/12/21 08:03:10;;;;;;;249.80;47.67;;;8.60;99.90;;;;;;5110006;28;20226;-69
2022/12/21 08:05:37;;;;;;;240.33;48.17;;;8.60;99.90;;;;;;5093609;28;20201;-70
2022/12/21 08:08:03;;;;;;;241.63;44.30;;;8.60;99.90;;;;;;5088958;28;20330;-69
2022/12/21 08:10:30;;;;;;;256.97;46.00;;;8.60;99.90;;;;;;5111707;28;20241;-71
2022/12/21 08:12:57;;;;;;;224.90;44.33;;;8.60;99.90;;;;;;5108677;28;20250;-70
2022/12/21 08:15:24;;;;;;;202.97;43.97;;;8.60;99.90;;;;;;5110553;28;20241;-70
2022/12/21 08:17:51;;;;;;;213.30;46.23;;;8.70;99.90;;;;;;5090225;28;20623;-71
2022/12/21 08:20:19;;;;;;;213.00;46.53;;;8.70;99.90;;;;;;5105957;28;20274;-70
2022/12/21 08:22:46;;;;;;;208.80;45.43;;;8.70;99.90;;;;;;5111050;28;20203;-69
2022/12/21 08:25:13;;;;;;;227.73;48.03;;;8.70;99.90;;;;;;5106728;28;20237;-69
2022/12/21 08:27:41;;;;;;;235.83;50.13;;;8.70;99.90;;;;;;5111828;28;20335;-70
2022/12/21 08:30:08;;;;;;;225.77;47.63;;;8.70;99.90;;;;;;5090809;28;20207;-69
2022/12/21 08:32:36;;;;;;;235.90;49.40;;;8.80;99.90;;;;;;5108258;28;20766;-69
2022/12/21 08:35:03;;;;;;;215.63;49.00;;;8.80;99.90;;;;;;5092267;28;20718;-69
2022/12/21 08:37:29;;;;;;;205.97;46.40;;;8.80;99.90;;;;;;5110923;28;20306;-70
2022/12/21 08:39:56;;;;;;;221.17;48.87;;;8.90;99.90;;;;;;5110824;28;20243;-70
2022/12/21 08:42:23;;;;;;;213.93;49.13;;;8.80;99.90;;;;;;5111252;28;20215;-69
2022/12/21 08:44:55;;;;;;;196.43;49.87;;;8.80;99.90;;;;;;5108654;28;20207;-69
2022/12/21 08:47:22;;;;;;;226.00;49.30;;;8.80;99.90;;;;;;5110912;28;20218;-70
2022/12/21 08:49:49;;;;;;;224.30;49.97;;;8.80;99.90;;;;;;5110499;28;20231;-71
2022/12/21 08:52:15;;;;;;;228.07;52.17;;;8.80;99.90;;;;;;5111420;28;20215;-69
2022/12/21 08:54:42;;;;;;;231.13;51.90;;;8.90;99.90;;;;;;5109593;28;20304;-69
2022/12/21 08:57:09;;;;;;;228.13;52.10;;;8.90;99.90;;;;;;5109325;28;20217;-70
2022/12/21 08:59:36;;;;;;;232.03;52.13;;;8.90;99.90;;;;;;5110880;28;20199;-68
2022/12/21 09:02:02;;;;;;;213.43;52.00;;;9.00;99.90;;;;;;5110583;28;20305;-69
2022/12/21 09:04:29;;;;;;;204.17;52.47;;;9.10;99.90;;;;;;5110093;28;20252;-71
2022/12/21 09:06:56;;;;;;;184.50;48.23;;;9.10;99.90;;;;;;5110660;28;20607;-70
2022/12/21 09:09:23;;;;;;;194.63;49.47;;;9.10;99.90;;;;;;5110271;28;20219;-69
2022/12/21 09:11:49;;;;;;;182.10;49.10;;;9.10;99.90;;;;;;5110360;28;20299;-69
2022/12/21 09:14:21;;;;;;;176.20;47.23;;;9.10;99.90;;;;;;5090166;28;20296;-69
2022/12/21 09:16:48;;;;;;;187.97;48.13;;;9.20;99.90;;;;;;5110569;28;20616;-69
2022/12/21 09:19:15;;;;;;;181.63;48.23;;;9.20;99.90;;;;;;5108124;28;20573;-69
2022/12/21 09:21:42;;;;;;;193.10;49.17;;;9.20;99.90;;;;;;5109880;28;20210;-70
2022/12/21 09:24:08;;;;;;;169.47;48.07;;;9.30;99.90;;;;;;5109794;28;20775;-70
2022/12/21 09:26:35;;;;;;;168.70;47.73;;;9.40;99.90;;;;;;5108539;28;20618;-71
2022/12/21 09:29:02;;;;;;;153.23;45.13;;;9.40;99.90;;;;;;5110438;28;20317;-70
2022/12/21 09:31:29;;;;;;;152.07;44.13;;;9.50;99.90;;;;;;5110449;28;20320;-68
2022/12/21 09:33:57;;;;;;;143.47;42.63;;;9.50;99.90;;;;;;5106913;28;20223;-70
2022/12/21 09:36:25;;;;;;;116.60;40.20;;;9.50;99.90;;;;;;5109232;28;20248;-69
2022/12/21 09:38:54;;;;;;;141.37;43.57;;;9.50;99.90;;;;;;5110735;28;20211;-69
2022/12/21 09:41:35;;;;;;;142.17;42.30;;;9.50;99.90;;;;;;5091962;28;20264;-69
2022/12/21 09:44:29;;;;;;;136.87;41.73;;;9.50;99.90;;;;;;5106219;28;20213;-69
2022/12/21 09:47:00;;;;;;;114.70;39.17;;;9.60;99.90;;;;;;5109879;28;20749;-69
2022/12/21 09:49:58;;;;;;;121.70;40.40;;;9.60;99.90;;;;;;5110202;28;20643;-69
2022/12/21 09:52:40;;;;;;;114.57;37.97;;;9.60;99.90;;;;;;5109320;28;20256;-69
2022/12/21 09:55:21;;;;;;;117.60;40.60;;;9.60;99.90;;;;;;5109574;28;20199;-70
2022/12/21 09:57:58;;;;;;;111.87;41.53;;;9.60;99.90;;;;;;5107445;28;20199;-70
2022/12/21 10:00:27;;;;;;;102.50;40.70;;;9.60;99.90;;;;;;5110583;28;20207;-70
2022/12/21 10:03:16;;;;;;;102.77;37.80;;;9.50;99.90;;;;;;5109944;28;20302;-70
2022/12/21 10:06:20;;;;;;;99.20;38.07;;;9.50;99.90;;;;;;5106454;28;20243;-69
2022/12/21 10:09:01;;;;;;;111.40;39.57;;;9.50;99.90;;;;;;5107179;28;20294;-69
2022/12/21 10:11:46;;;;;;;102.90;40.17;;;9.50;99.90;;;;;;5109604;28;20202;-69
2022/12/21 10:14:20;;;;;;;100.80;37.77;;;9.50;99.90;;;;;;5103398;28;20253;-69
2022/12/21 10:16:58;;;;;;;97.77;37.30;;;9.60;99.90;;;;;;5103565;28;20604;-71
2022/12/21 10:20:16;;;;;;;98.97;37.03;;;9.50;99.90;;;;;;5108017;28;20199;-70
2022/12/21 10:22:46;;;;;;;83.40;34.10;;;9.60;99.90;;;;;;5109306;28;20207;-69
2022/12/21 10:25:38;;;;;;;85.80;35.73;;;9.50;99.90;;;;;;5104798;28;20278;-68
2022/12/21 10:28:24;;;;;;;87.20;35.40;;;9.60;99.90;;;;;;5093649;28;20203;-69
2022/12/21 10:31:01;;;;;;;87.97;35.63;;;9.60;99.90;;;;;;5106731;28;20245;-69
2022/12/21 10:33:29;;;;;;;85.80;35.13;;;9.60;99.90;;;;;;5109718;28;20214;-69
2022/12/21 10:36:02;;;;;;;76.53;31.67;;;9.60;99.90;;;;;;5110263;28;20238;-70
2022/12/21 10:38:33;;;;;;;76.73;31.60;;;9.60;99.90;;;;;;5087105;28;20252;-69
2022/12/21 10:41:03;;;;;;;82.43;33.67;;;9.60;99.90;;;;;;5106686;28;20671;-69
2022/12/21 10:43:38;;;;;;;76.27;31.03;;;9.50;99.90;;;;;;5093665;28;20249;-70
2022/12/21 10:46:05;;;;;;;74.43;31.63;;;9.40;99.90;;;;;;5111348;28;20265;-70
2022/12/21 10:48:33;;;;;;;80.53;33.27;;;9.30;99.90;;;;;;5112887;28;20207;-70
2022/12/21 10:51:15;;;;;;;74.50;31.80;;;9.30;99.90;;;;;;5111979;28;20246;-69
2022/12/21 10:53:57;;;;;;;83.33;30.87;;;9.20;99.90;;;;;;5107749;28;20223;-69
2022/12/21 10:56:26;;;;;;;75.73;32.57;;;9.20;99.90;;;;;;5109898;28;20236;-70
2022/12/21 10:58:53;;;;;;;81.17;33.07;;;9.20;99.90;;;;;;5111905;28;20237;-69
2022/12/21 11:01:25;;;;;;;76.53;32.97;;;9.20;99.90;;;;;;5092898;28;20678;-69
2022/12/21 11:04:06;;;;;;;84.00;35.73;;;9.20;99.90;;;;;;5092675;28;20202;-69
2022/12/21 11:06:33;;;;;;;80.07;34.00;;;9.30;99.90;;;;;;5108952;28;20203;-69
2022/12/21 11:09:00;;;;;;;80.13;34.03;;;9.30;99.90;;;;;;5111957;28;20213;-69
2022/12/21 11:11:33;;;;;;;75.50;32.60;;;9.30;99.90;;;;;;5112693;28;20658;-69
2022/12/21 11:14:16;;;;;;;74.43;31.83;;;9.30;99.90;;;;;;5110414;28;20230;-70
2022/12/21 11:16:44;;;;;;;76.60;32.90;;;9.40;99.90;;;;;;5088166;28;20576;-69
2022/12/21 11:19:19;;;;;;;67.50;30.40;;;9.40;99.90;;;;;;5107834;27;20635;-70
2022/12/21 11:21:54;;;;;;;66.53;32.37;;;9.40;99.90;;;;;;5107975;28;20199;-69
2022/12/21 11:24:32;;;;;;;69.67;32.50;;;9.40;99.90;;;;;;5087383;28;20699;-70
2022/12/21 11:27:23;;;;;;;75.97;32.70;;;9.40;99.90;;;;;;5105059;28;20281;-68
2022/12/21 11:29:57;;;;;;;65.77;31.77;;;9.30;99.90;;;;;;5108732;28;20684;-69
2022/12/21 11:32:26;;;;;;;67.90;32.63;;;9.30;99.90;;;;;;5104807;28;20223;-68
2022/12/21 11:34:59;;;;;;;61.03;30.63;;;9.20;99.90;;;;;;5106111;28;20257;-69
2022/12/21 11:37:37;;;;;;;69.60;33.10;;;9.20;99.90;;;;;;5103924;28;20267;-69
2022/12/21 11:40:14;;;;;;;68.00;31.10;;;9.20;99.90;;;;;;5107444;28;20727;-69
2022/12/21 11:42:59;;;;;;;62.63;31.17;;;9.20;99.90;;;;;;5108010;28;20191;-68
2022/12/21 11:45:52;;;;;;;59.83;30.50;;;9.20;99.90;;;;;;5107823;28;20290;-70
2022/12/21 11:48:51;;;;;;;59.87;30.60;;;9.30;99.90;;;;;;5108494;28;20655;-68
2022/12/21 11:51:43;;;;;;;60.33;29.13;;;9.30;99.90;;;;;;5110939;28;20207;-69
2022/12/21 11:54:18;;;;;;;63.93;31.23;;;9.40;99.90;;;;;;5108116;28;20258;-69
2022/12/21 11:57:03;;;;;;;67.13;31.67;;;9.40;99.90;;;;;;5110924;28;20201;-69
2022/12/21 11:59:42;;;;;;;59.43;30.47;;;9.30;99.90;;;;;;5104433;28;20214;-69
2022/12/21 12:02:33;;;;;;;65.83;32.47;;;9.40;99.90;;;;;;5104135;28;20273;-69
2022/12/21 12:05:39;;;;;;;66.63;32.43;;;9.40;99.90;;;;;;5107812;28;21010;-69
2022/12/21 12:08:17;;;;;;;66.50;33.17;;;9.40;99.90;;;;;;5009826;28;20293;-71
2022/12/21 12:11:04;;;;;;;62.00;31.93;;;9.40;99.90;;;;;;5018495;28;20297;-68
2022/12/21 12:14:08;;;;;;;70.00;33.90;;;9.40;99.90;;;;;;5065061;28;20213;-68
2022/12/21 12:17:01;;;;;;;68.60;31.53;;;9.50;99.90;;;;;;5108164;28;20246;-68
2022/12/21 12:19:41;;;;;;;62.67;32.43;;;9.50;99.90;;;;;;5110827;28;20199;-70
2022/12/21 12:22:30;;;;;;;64.80;32.33;;;9.50;99.90;;;;;;5090854;28;20202;-68
2022/12/21 12:24:57;;;;;;;68.63;31.13;;;9.50;99.90;;;;;;5102664;28;20200;-68
2022/12/21 12:27:49;;;;;;;69.43;34.63;;;9.40;99.90;;;;;;5108231;28;20195;-69
2022/12/21 12:30:23;;;;;;;70.57;32.47;;;9.40;99.90;;;;;;5107293;28;20636;-69
2022/12/21 12:33:26;;;;;;;64.17;32.93;;;9.40;99.90;;;;;;5105680;28;20254;-69
2022/12/21 12:36:19;;;;;;;70.97;33.07;;;9.40;99.90;;;;;;5106704;28;20234;-69
2022/12/21 12:39:03;;;;;;;63.00;32.53;;;9.40;99.90;;;;;;5107516;28;20294;-69
2022/12/21 12:41:51;;;;;;;63.80;34.70;;;9.40;99.90;;;;;;5109262;28;20207;-69
2022/12/21 12:45:03;;;;;;;56.70;32.43;;;9.40;99.90;;;;;;5092462;28;20716;-69
2022/12/21 12:47:44;;;;;;;59.70;33.50;;;9.40;99.90;;;;;;5075857;28;20218;-69
2022/12/21 12:50:27;;;;;;;61.53;31.07;;;9.40;99.90;;;;;;5110286;28;20311;-70
2022/12/21 12:53:17;;;;;;;64.50;31.27;;;9.40;99.90;;;;;;5087428;28;20226;-69
2022/12/21 12:56:00;;;;;;;61.70;30.67;;;9.40;99.90;;;;;;5107830;28;20273;-70
2022/12/21 12:58:38;;;;;;;60.27;30.47;;;9.30;99.90;;;;;;5107177;28;20191;-69
2022/12/21 13:01:11;;;;;;;53.40;29.57;;;9.40;99.90;;;;;;5105360;28;20239;-69
2022/12/21 13:04:02;;;;;;;60.63;30.83;;;9.40;99.90;;;;;;5105618;28;20203;-70
2022/12/21 13:06:45;;;;;;;55.90;30.40;;;9.30;99.90;;;;;;5102084;28;20655;-70
2022/12/21 13:09:35;;;;;;;55.47;30.33;;;9.30;99.90;;;;;;5107842;28;20222;-69